• Join FlightAware (Why Join?)
  • Login
  • US Flag 
04:00AM EDT


 

Airport Tracker/Info


-or-


 

Live Flight TrackerFlight Track Log ✈ AWE1940 ✈ 30-Apr-2013 ✈ KCLT - KALB

Flight Track Log - Related Links

Times and Time Zones

All times are in EDT time to prevent confusion due to time zone crossing. See the AWE1940 flight status page for this flight to view local times or setup timezone preferences in your user account.

Time Position Orientation Groundspeed Altitude Reporting Facility
EDT Latitude Longitude Course Direction KTS MPH feet Rate Location/Type
10:22PM 35.2306 -80.9392 72° East 169 194 1,500  Level Atlanta Center
10:24PM 35.2797 -80.9017 32° Northeast 221 254 3,800 2,040 Climbing Atlanta Center
10:24PM 35.2903 -80.8278 80° East 254 292 5,900 2,760 Climbing Atlanta Center
10:25PM 35.3089 -80.7428 75° East 292 336 9,100 2,160 Climbing Atlanta Center
10:26PM 35.2199 -80.5525 30° Northeast  Level FlightAware Approximate
10:27PM 35.3167 -80.4816 90° East  Level FlightAware Approximate
10:27PM 35.3531 -80.5275 76° East 336 387 12,300  Level Washington Center
10:28PM 35.3594 -80.3681 72° East  Level FlightAware Approximate
10:28PM 35.3817 -80.3917 75° East 387 445 14,700  Level Washington Center
10:29PM 35.4078 -80.2556 77° East 407 468 16,800 1,980 Climbing Washington Center
10:30PM 35.4383 -80.1172 75° East 414 476 18,700 1,680 Climbing Washington Center
10:31PM 35.4767 -79.9817 71° East 414 476 20,300 1,440 Climbing Washington Center
10:32PM 35.5131 -79.8381 73° East 419 482 21,600 1,380 Climbing Washington Center
10:33PM 35.5497 -79.6894 73° East 431 496 23,100 1,260 Climbing Washington Center
10:34PM 35.5883 -79.5331 73° East 460 529 24,200 1,200 Climbing Washington Center
10:35PM 35.6350 -79.3819 69° East 475 547 25,500 1,320 Climbing Washington Center
10:36PM 35.6914 -79.2414 64° Northeast 470 541 26,800 1,440 Climbing Washington Center
10:37PM 35.7522 -79.0958 63° Northeast 470 541 28,400 1,500 Climbing Washington Center
10:38PM 35.8106 -78.9500 64° Northeast 470 541 29,800 1,260 Climbing Washington Center
10:39PM 35.8689 -78.8061 63° Northeast 470 541 31,000 1,200 Climbing Washington Center
10:40PM 35.9353 -78.6628 60° Northeast 470 541 32,300 1,200 Climbing Washington Center
10:41PM 36.0011 -78.5267 59° Northeast 465 535 33,400 1,020 Climbing Washington Center
10:42PM 36.0692 -78.3878 59° Northeast 465 535 34,400 780 Climbing Washington Center
10:43PM 36.1328 -78.2511 60° Northeast 465 535 35,000 300 Climbing Washington Center
10:44PM 36.1983 -78.1144 59° Northeast 460 529 35,000  Level Washington Center
10:45PM 36.2636 -77.9800 59° Northeast 455 524 35,000  Level Washington Center
10:46PM 36.3289 -77.8403 60° Northeast 455 524 35,000  Level Washington Center
10:47PM 36.3942 -77.7028 59° Northeast 455 524 35,000  Level Washington Center
10:48PM 36.4483 -77.5828 61° Northeast 455 524 35,000  Level Washington Center
10:49PM 36.5131 -77.4450 60° Northeast 455 524 35,000  Level Washington Center
10:50PM 36.5778 -77.3094 59° Northeast 455 524 35,000  Level Washington Center
10:51PM 36.6403 -77.1683 61° Northeast 455 524 35,000  Level Washington Center
10:53PM 36.6939 -77.0173 66° East  Level FlightAware Approximate
10:53PM 36.8183 -76.9178 66° East 450 518 35,000  Level Washington Center
10:54PM 36.9194 -76.8258 36° Northeast 450 518 35,000  Level Washington Center
10:55PM 37.0247 -76.7339 35° Northeast 450 518 35,000  Level Washington Center
10:56PM 37.1258 -76.6392 37° Northeast 450 518 35,000  Level Washington Center
10:57PM 37.2289 -76.5439 36° Northeast 455 524 35,000  Level Washington Center
10:58PM 37.3358 -76.4564 33° Northeast 455 524 35,000  Level Washington Center
10:59PM 37.4386 -76.3792 31° Northeast 449 517 35,000  Level Washington Center
11:00PM 37.5475 -76.2964 31° Northeast 444 511 35,000  Level Washington Center
11:01PM 37.6439 -76.2214 32° Northeast 444 511 35,000  Level Washington Center
11:02PM 37.7631 -76.1356 30° Northeast 444 511 35,000  Level Washington Center
11:03PM 37.8531 -76.0600 34° Northeast 444 511 35,000  Level Washington Center
11:04PM 37.9597 -75.9789 31° Northeast 450 518 35,000  Level Washington Center
11:05PM 38.0664 -75.8950 32° Northeast 445 512 35,000  Level Washington Center
11:06PM 38.1708 -75.8136 31° Northeast 445 512 35,000  Level Washington Center
11:07PM 38.2753 -75.7319 32° Northeast 445 512 35,000  Level Washington Center
11:08PM 38.3878 -75.6419 32° Northeast 445 512 35,000  Level Washington Center
11:09PM 38.4922 -75.5625 31° Northeast 439 505 35,000  Level Washington Center
11:10PM 38.5942 -75.4800 32° Northeast 434 499 35,000  Level Washington Center
11:11PM 38.7006 -75.3947 32° Northeast 434 499 35,000  Level Washington Center
11:12PM 38.8044 -75.3172 30° Northeast 434 499 35,000  Level Washington Center
11:13PM 38.9064 -75.2317 33° Northeast 434 499 35,000  Level Washington Center
11:14PM 39.0103 -75.1483 32° Northeast 434 499 35,000  Level Washington Center
11:15PM 39.1122 -75.0647 32° Northeast 434 499 35,000  Level Washington Center
11:16PM 39.2139 -74.9836 32° Northeast 434 499 35,000  Level Washington Center
11:17PM 39.3156 -74.8994 33° Northeast 434 499 35,000  Level Washington Center
11:18PM 39.4214 -74.8178 31° Northeast 434 499 35,000  Level Washington Center
11:19PM 39.5208 -74.7306 34° Northeast 434 499 35,000  Level Washington Center
11:21PM 39.6889 -74.5961 32° Northeast 445 512 35,000  Level New York Center
11:22PM 39.7808 -74.5203 32° Northeast 431 496 35,000  Level New York Center
11:24PM 39.9864 -74.3497 32° Northeast 436 502 35,000  Level New York Center
11:25PM 40.0892 -74.2628 33° Northeast 436 502 35,000 -60 Level New York Center
11:27PM 40.3278 -74.0569 33° Northeast 427 491 34,900 -420 Descending Boston Center
11:28PM 40.4331 -73.9778 30° Northeast 427 491 33,700 -2,400 Descending Boston Center
11:29PM 40.5342 -73.8928 33° Northeast 427 491 30,200 -3,060 Descending Boston Center
11:30PM 40.6372 -73.8075 32° Northeast 432 497 27,600 -2,580 Descending Boston Center
11:31PM 40.7342 -73.7219 34° Northeast 432 497 25,100 -1,860 Descending Boston Center
11:32PM 40.8331 -73.6306 35° Northeast 425 489 23,900 -600 Descending Boston Center
11:33PM 40.9383 -73.5364 34° Northeast 436 502 24,000  Climbing Boston Center
11:34PM 41.0475 -73.4503 31° Northeast 450 518 24,000 -900 Level Boston Center
11:35PM 41.1606 -73.3775 26° Northeast 455 524 22,200 -2,100 Descending Boston Center
11:36PM 41.2792 -73.4014 351° North 414 476 19,900 -1,140 Descending Boston Center
11:37PM 41.3978 -73.4308 349° North 419 482 20,000  Climbing Boston Center
11:38PM 41.5122 -73.4658 347° North 424 488 19,900 -960 Descending Boston Center
11:39PM 41.6264 -73.4981 348° North 419 482 18,100 -2,460 Descending Boston Center
11:40PM 41.7511 -73.5308 349° North 419 482 15,000 -3,060 Descending Boston Center
11:41PM 41.8303 -73.5517 349° North 413 475 12,800 -2,700 Descending Boston Center
11:41PM 41.8489 -73.5547 353° North 410 472 12,300 -1,320 Descending Boston Center
11:42PM 41.9839 -73.5936 348° North 380 437 11,000 -600 Descending Boston Center
11:43PM 42.0608 -73.6117 350° North 389 448 11,100  Climbing Boston Center
11:44PM 42.1608 -73.6333 351° North 389 448 11,000 -120 Descending Boston Center
11:45PM 42.2461 -73.6406 356° North 349 402 10,900 -900 Descending Boston Center
11:46PM 42.3336 -73.6450 358° North 298 343 9,200 -1,680 Descending Boston Center
11:47PM 42.3564 -73.6511 349° North 285 328 8,800 -1,800 Descending Boston Center
11:48PM 42.4419 -73.6583 356° North 288 331 6,900 -1,740 Descending Boston Center
11:49PM 42.5208 -73.6683 355° North 280 322 5,300 -1,620 Descending Boston Center
11:51PM 42.6961 -73.7814 340° North  Level FlightAware Approximate